createdAt,value
2023-02-26T00:00:09.972Z,4.07
2023-02-26T00:02:36.722Z,4.47
2023-02-26T00:05:04.971Z,5.20
2023-02-26T00:07:31.543Z,4.47
2023-02-26T00:09:58.690Z,5.57
2023-02-26T00:12:25.894Z,4.20
2023-02-26T00:14:52.974Z,3.57
2023-02-26T00:17:31.509Z,4.53
2023-02-26T00:19:58.540Z,5.03
2023-02-26T00:22:25.376Z,5.53
2023-02-26T00:24:52.333Z,3.70
2023-02-26T00:27:18.850Z,4.57
2023-02-26T00:29:46.020Z,4.73
2023-02-26T00:32:13.106Z,5.33
2023-02-26T00:34:40.555Z,3.63
2023-02-26T00:37:31.652Z,4.67
2023-02-26T00:40:16.946Z,4.03
2023-02-26T00:42:43.673Z,3.90
2023-02-26T00:45:12.065Z,3.60
2023-02-26T00:48:01.365Z,3.23
2023-02-26T00:50:28.270Z,3.33
2023-02-26T00:53:17.131Z,3.47
2023-02-26T00:55:43.804Z,3.70
2023-02-26T00:58:10.320Z,3.70
2023-02-26T01:00:36.804Z,3.83
2023-02-26T01:03:03.799Z,4.03
2023-02-26T01:05:30.806Z,4.17
2023-02-26T01:08:13.230Z,2.63
2023-02-26T01:10:40.612Z,3.83
2023-02-26T01:13:07.420Z,3.30
2023-02-26T01:15:34.307Z,4.87
2023-02-26T01:18:03.990Z,4.97
2023-02-26T01:20:37.504Z,2.80
2023-02-26T01:23:07.416Z,2.97
2023-02-26T01:25:44.795Z,4.37
2023-02-26T01:28:11.466Z,5.27
2023-02-26T01:30:38.406Z,5.60
2023-02-26T01:33:17.867Z,8.60
2023-02-26T01:35:53.511Z,7.77
2023-02-26T01:38:44.393Z,4.47
2023-02-26T01:41:30.259Z,4.20
2023-02-26T01:44:03.695Z,3.90
2023-02-26T01:46:44.121Z,4.37
2023-02-26T01:49:16.172Z,5.83
2023-02-26T01:51:47.359Z,4.47
2023-02-26T01:54:15.425Z,4.17
2023-02-26T01:56:42.340Z,4.30
2023-02-26T01:59:10.262Z,5.03
2023-02-26T02:01:37.616Z,5.20
2023-02-26T02:04:04.923Z,4.43
2023-02-26T02:06:31.662Z,6.33
2023-02-26T02:08:58.158Z,4.20
2023-02-26T02:11:24.657Z,5.03
2023-02-26T02:14:21.999Z,4.00
2023-02-26T02:17:12.070Z,4.70
2023-02-26T02:19:50.274Z,4.40
2023-02-26T02:22:19.854Z,4.47
2023-02-26T02:24:58.417Z,5.67
2023-02-26T02:27:43.194Z,4.93
2023-02-26T02:30:36.935Z,5.80
2023-02-26T02:33:20.143Z,4.83
2023-02-26T02:36:12.717Z,4.27
2023-02-26T02:38:52.980Z,4.43
2023-02-26T02:41:24.618Z,4.30
2023-02-26T02:43:51.964Z,7.40
2023-02-26T02:46:22.248Z,4.90
2023-02-26T02:49:01.930Z,4.90
2023-02-26T02:51:36.621Z,4.23
2023-02-26T02:54:26.282Z,3.73
2023-02-26T02:56:56.948Z,5.33
2023-02-26T02:59:40.156Z,4.13
2023-02-26T03:02:23.873Z,4.90
2023-02-26T03:04:50.450Z,4.10
2023-02-26T03:07:16.929Z,4.03
2023-02-26T03:09:43.459Z,4.43
2023-02-26T03:12:10.399Z,4.53
2023-02-26T03:14:37.113Z,4.37
2023-02-26T03:17:32.334Z,3.70
2023-02-26T03:20:28.002Z,3.93
2023-02-26T03:23:18.971Z,7.07
2023-02-26T03:25:51.286Z,3.83
2023-02-26T03:28:27.185Z,4.77
2023-02-26T03:31:11.523Z,5.27
2023-02-26T03:33:59.230Z,4.83
2023-02-26T03:36:38.067Z,5.40
2023-02-26T03:39:30.864Z,4.77
2023-02-26T03:42:03.401Z,4.47
2023-02-26T03:44:39.597Z,5.57
2023-02-26T03:47:12.873Z,5.13
2023-02-26T03:49:44.530Z,6.00
2023-02-26T03:52:11.739Z,5.37
2023-02-26T03:54:55.298Z,5.10
2023-02-26T03:57:22.055Z,7.07
2023-02-26T03:59:48.683Z,6.17
2023-02-26T04:02:19.148Z,4.07
2023-02-26T04:04:53.544Z,5.00
2023-02-26T04:07:20.703Z,4.43
2023-02-26T04:09:49.593Z,4.33
2023-02-26T04:12:21.189Z,4.57
2023-02-26T04:14:47.636Z,4.77
2023-02-26T04:17:14.102Z,5.97
2023-02-26T04:19:40.708Z,5.47
2023-02-26T04:22:07.211Z,3.97
2023-02-26T04:24:33.939Z,5.33
2023-02-26T04:27:00.480Z,4.73
2023-02-26T04:29:27.565Z,4.13
2023-02-26T04:31:54.336Z,5.03
2023-02-26T04:34:21.076Z,5.43
2023-02-26T04:36:47.598Z,6.27
2023-02-26T04:39:14.139Z,4.90
2023-02-26T04:41:40.783Z,4.87
2023-02-26T04:44:07.261Z,8.03
2023-02-26T04:46:33.844Z,5.67
2023-02-26T04:49:00.502Z,6.33
2023-02-26T04:51:27.165Z,5.73
2023-02-26T04:53:53.724Z,6.13
2023-02-26T04:56:20.559Z,6.30
2023-02-26T04:58:47.016Z,4.93
2023-02-26T05:01:13.724Z,6.27
2023-02-26T05:03:40.464Z,7.33
2023-02-26T05:06:07.200Z,5.03
2023-02-26T05:08:33.647Z,5.83
2023-02-26T05:11:00.160Z,4.20
2023-02-26T05:13:26.888Z,4.00
2023-02-26T05:15:54.626Z,4.60
2023-02-26T05:18:21.369Z,4.63
2023-02-26T05:20:53.024Z,3.47
2023-02-26T05:23:19.561Z,4.70
2023-02-26T05:25:46.125Z,3.13
2023-02-26T05:28:12.677Z,2.93
2023-02-26T05:30:39.203Z,3.63
2023-02-26T05:33:05.890Z,6.03
2023-02-26T05:35:32.423Z,3.87
2023-02-26T05:37:59.846Z,2.30
2023-02-26T05:40:26.534Z,4.20
2023-02-26T05:42:53.098Z,2.73
2023-02-26T05:45:19.588Z,2.43
2023-02-26T05:47:46.193Z,3.83
2023-02-26T05:50:12.896Z,3.90
2023-02-26T05:52:39.508Z,3.93
2023-02-26T05:55:06.928Z,4.00
2023-02-26T05:57:33.390Z,3.33
2023-02-26T05:59:59.866Z,2.63
2023-02-26T06:02:26.601Z,2.97
2023-02-26T06:04:53.165Z,2.87
2023-02-26T06:07:19.674Z,2.93
2023-02-26T06:09:46.446Z,3.77
2023-02-26T06:12:12.974Z,1.90
2023-02-26T06:14:39.424Z,3.70
2023-02-26T06:17:06.921Z,1.93
2023-02-26T06:19:33.962Z,3.33
2023-02-26T06:22:00.505Z,2.97
2023-02-26T06:24:27.156Z,2.13
2023-02-26T06:26:53.590Z,3.30
2023-02-26T06:29:20.735Z,1.40
2023-02-26T06:31:47.808Z,2.07
2023-02-26T06:34:14.552Z,1.63
2023-02-26T06:36:41.132Z,3.57
2023-02-26T06:39:08.185Z,2.00
2023-02-26T06:41:34.678Z,2.63
2023-02-26T06:44:01.229Z,2.27
2023-02-26T06:46:28.133Z,2.20
2023-02-26T06:48:54.751Z,4.87
2023-02-26T06:51:21.277Z,2.17
2023-02-26T06:53:47.933Z,3.83
2023-02-26T06:56:15.033Z,3.03
2023-02-26T06:58:41.645Z,2.13
2023-02-26T07:01:08.330Z,2.47
2023-02-26T07:03:34.886Z,2.10
2023-02-26T07:06:23.690Z,2.90
2023-02-26T07:08:48.432Z,2.63
2023-02-26T07:11:15.088Z,3.17
2023-02-26T07:13:41.695Z,3.13
2023-02-26T07:16:08.463Z,4.60
2023-02-26T07:18:36.441Z,2.77
2023-02-26T07:21:04.273Z,2.23
2023-02-26T07:23:31.498Z,4.77
2023-02-26T07:25:58.221Z,5.23
2023-02-26T07:28:25.037Z,3.67
2023-02-26T07:30:54.727Z,3.00
2023-02-26T07:33:21.694Z,3.13
2023-02-26T07:35:48.374Z,2.33
2023-02-26T07:38:15.390Z,3.33
2023-02-26T07:40:41.916Z,3.53
2023-02-26T07:43:08.380Z,3.43
2023-02-26T07:45:35.055Z,3.60
2023-02-26T07:48:01.767Z,6.97
2023-02-26T07:50:28.304Z,2.10
2023-02-26T07:52:55.427Z,2.63
2023-02-26T07:55:22.262Z,1.67
2023-02-26T07:57:48.718Z,2.27
2023-02-26T08:00:16.052Z,2.77
2023-02-26T08:02:42.558Z,1.73
2023-02-26T08:05:09.191Z,3.27
2023-02-26T08:07:35.991Z,2.07
2023-02-26T08:10:02.539Z,2.63
2023-02-26T08:12:29.296Z,2.10
2023-02-26T08:14:56.311Z,2.53
2023-02-26T08:17:22.782Z,2.87
2023-02-26T08:19:49.417Z,4.60
2023-02-26T08:22:16.137Z,2.77
2023-02-26T08:24:42.787Z,2.73
2023-02-26T08:27:09.265Z,3.00
2023-02-26T08:29:36.214Z,3.63
2023-02-26T08:32:02.808Z,2.57
2023-02-26T08:34:30.018Z,1.53
2023-02-26T08:36:57.439Z,1.07
2023-02-26T08:39:23.990Z,3.57
2023-02-26T08:41:50.503Z,2.30
2023-02-26T08:44:17.263Z,2.23
2023-02-26T08:46:43.754Z,1.67
2023-02-26T08:49:10.340Z,2.00
2023-02-26T08:51:37.221Z,2.47
2023-02-26T08:54:03.687Z,5.20
2023-02-26T08:56:32.013Z,2.17
2023-02-26T08:58:58.782Z,1.80
2023-02-26T09:01:25.771Z,2.10
2023-02-26T09:03:52.418Z,1.57
2023-02-26T09:06:19.038Z,3.10
2023-02-26T09:08:45.672Z,3.33
2023-02-26T09:11:12.199Z,3.03
2023-02-26T09:13:39.126Z,2.00
2023-02-26T09:16:06.260Z,3.10
2023-02-26T09:18:32.817Z,2.67
2023-02-26T09:20:59.484Z,3.17
2023-02-26T09:23:26.186Z,1.60
2023-02-26T09:25:57.279Z,3.67
2023-02-26T09:28:25.480Z,2.93
2023-02-26T09:30:53.455Z,2.43
2023-02-26T09:33:20.425Z,6.63
2023-02-26T09:35:51.338Z,5.53
2023-02-26T09:38:18.461Z,1.97
2023-02-26T09:40:50.301Z,2.70
2023-02-26T09:43:54.308Z,2.63
2023-02-26T09:46:38.682Z,3.00
2023-02-26T09:49:15.492Z,2.27
2023-02-26T09:51:42.270Z,3.67
2023-02-26T09:54:22.798Z,2.77
2023-02-26T09:56:50.343Z,4.20
2023-02-26T09:59:16.999Z,4.37
2023-02-26T10:01:54.836Z,3.33
2023-02-26T10:04:44.839Z,8.20
2023-02-26T10:07:22.185Z,6.13
2023-02-26T10:10:11.843Z,4.30
2023-02-26T10:12:41.092Z,6.13
2023-02-26T10:15:18.970Z,2.93
2023-02-26T10:18:13.774Z,4.90
2023-02-26T10:20:58.782Z,8.30
2023-02-26T10:23:32.564Z,5.03
2023-02-26T10:26:08.410Z,4.03
2023-02-26T10:28:38.884Z,5.00
2023-02-26T10:31:19.246Z,4.23
2023-02-26T10:33:53.663Z,3.40
2023-02-26T10:36:55.607Z,4.20
2023-02-26T10:39:37.689Z,5.30
2023-02-26T10:42:12.384Z,6.37
2023-02-26T10:44:52.941Z,4.50
2023-02-26T10:47:54.398Z,3.13
2023-02-26T10:50:22.781Z,4.73
2023-02-26T10:52:50.015Z,2.10
2023-02-26T10:55:31.382Z,6.23
2023-02-26T10:58:05.478Z,4.43
2023-02-26T11:00:35.366Z,3.40
2023-02-26T11:03:03.872Z,4.17
2023-02-26T11:05:32.482Z,7.87
2023-02-26T11:08:04.003Z,4.13
2023-02-26T11:10:49.346Z,3.53
2023-02-26T11:13:16.078Z,2.63
2023-02-26T11:15:43.877Z,2.33
2023-02-26T11:18:17.107Z,2.90
2023-02-26T11:20:45.965Z,4.80
2023-02-26T11:23:16.550Z,2.77
2023-02-26T11:25:45.440Z,3.03
2023-02-26T11:28:22.322Z,3.47
2023-02-26T11:30:49.462Z,3.10
2023-02-26T11:33:38.645Z,4.30
2023-02-26T11:36:10.424Z,4.37
2023-02-26T11:38:37.285Z,3.70
2023-02-26T11:41:05.351Z,3.20
2023-02-26T11:43:38.305Z,6.20
2023-02-26T11:46:06.010Z,2.57
2023-02-26T11:48:53.444Z,7.83
2023-02-26T11:51:23.032Z,3.93
2023-02-26T11:53:55.578Z,4.57
2023-02-26T11:56:40.447Z,2.23
2023-02-26T11:59:15.855Z,4.73
2023-02-26T12:01:43.104Z,2.47
2023-02-26T12:04:11.942Z,3.40
2023-02-26T12:06:38.905Z,2.37
2023-02-26T12:09:12.473Z,6.50
2023-02-26T12:11:44.027Z,5.50
2023-02-26T12:14:41.053Z,3.73
2023-02-26T12:17:32.287Z,5.50
2023-02-26T12:20:04.594Z,5.63
2023-02-26T12:22:47.115Z,3.77
2023-02-26T12:25:22.469Z,3.20
2023-02-26T12:28:10.124Z,6.93
2023-02-26T12:30:48.782Z,4.40
2023-02-26T12:33:40.172Z,4.30
2023-02-26T12:36:48.781Z,2.90
2023-02-26T12:39:49.987Z,4.83
2023-02-26T12:42:44.508Z,3.33
2023-02-26T12:45:29.142Z,3.33
2023-02-26T12:48:09.015Z,5.80
2023-02-26T12:50:41.745Z,2.10
2023-02-26T12:53:11.305Z,6.97
2023-02-26T12:56:11.668Z,5.43
2023-02-26T12:58:50.876Z,3.67
2023-02-26T13:02:01.010Z,3.60
2023-02-26T13:04:47.304Z,4.50
2023-02-26T13:07:20.393Z,5.13
2023-02-26T13:09:50.801Z,4.40
2023-02-26T13:12:31.886Z,5.80
2023-02-26T13:15:20.248Z,5.80
2023-02-26T13:17:59.247Z,3.57
2023-02-26T13:20:29.129Z,2.70
2023-02-26T13:23:01.573Z,1.87
2023-02-26T13:25:52.443Z,4.47
2023-02-26T13:28:25.867Z,3.43
2023-02-26T13:30:54.769Z,4.10
2023-02-26T13:33:26.229Z,5.47
2023-02-26T13:35:53.781Z,4.23
2023-02-26T13:38:26.706Z,4.40
2023-02-26T13:41:17.066Z,5.43
2023-02-26T13:44:02.544Z,2.40
2023-02-26T13:46:57.097Z,2.80
2023-02-26T13:49:31.433Z,4.43
2023-02-26T13:51:58.917Z,2.97
2023-02-26T13:54:35.102Z,4.47
2023-02-26T13:57:20.768Z,5.03
2023-02-26T14:00:15.372Z,5.17
2023-02-26T14:02:52.468Z,5.17
2023-02-26T14:05:45.348Z,4.03
2023-02-26T14:08:18.378Z,5.40
2023-02-26T14:10:47.839Z,3.73
2023-02-26T14:13:18.652Z,5.30
2023-02-26T14:16:13.950Z,3.23
2023-02-26T14:18:40.377Z,6.93
2023-02-26T14:21:28.423Z,3.97
2023-02-26T14:24:01.048Z,10.27
2023-02-26T14:26:29.875Z,3.77
2023-02-26T14:28:58.220Z,3.43
2023-02-26T14:31:29.110Z,4.10
2023-02-26T14:34:10.100Z,5.63
2023-02-26T14:36:42.837Z,5.00
2023-02-26T14:39:18.101Z,4.80
2023-02-26T14:41:45.306Z,3.13
2023-02-26T14:44:16.052Z,4.93
2023-02-26T14:46:43.850Z,5.23
2023-02-26T14:49:25.254Z,4.30
2023-02-26T14:52:09.856Z,4.63
2023-02-26T14:55:27.604Z,5.13
2023-02-26T14:58:14.512Z,3.93
2023-02-26T15:00:54.218Z,7.17
2023-02-26T15:03:42.387Z,9.93
2023-02-26T15:06:50.869Z,3.60
2023-02-26T15:09:21.990Z,6.23
2023-02-26T15:12:10.216Z,4.70
2023-02-26T15:14:50.407Z,6.53
2023-02-26T15:17:31.925Z,7.50
2023-02-26T15:20:27.495Z,7.93
2023-02-26T15:23:32.032Z,6.27
2023-02-26T15:25:58.931Z,3.80
2023-02-26T15:28:29.000Z,6.87
2023-02-26T15:30:56.204Z,6.43
2023-02-26T15:33:24.454Z,5.07
2023-02-26T15:35:52.250Z,5.40
2023-02-26T15:38:19.369Z,5.23
2023-02-26T15:40:46.329Z,3.93
2023-02-26T15:43:16.515Z,8.17
2023-02-26T15:45:46.265Z,5.70
2023-02-26T15:48:16.928Z,5.77
2023-02-26T15:50:45.566Z,7.50
2023-02-26T15:53:21.907Z,6.33
2023-02-26T15:55:53.713Z,7.50
2023-02-26T15:58:38.599Z,8.10
2023-02-26T16:01:05.569Z,10.30
2023-02-26T16:03:35.467Z,4.93
2023-02-26T16:06:02.561Z,7.33
2023-02-26T16:08:30.208Z,4.77
2023-02-26T16:10:58.813Z,5.50
2023-02-26T16:13:31.710Z,13.27
2023-02-26T16:16:21.136Z,6.53
2023-02-26T16:18:48.212Z,9.50
2023-02-26T16:21:34.404Z,6.00
2023-02-26T16:24:02.237Z,8.30
2023-02-26T16:26:35.530Z,10.63
2023-02-26T16:29:06.308Z,15.13
2023-02-26T16:31:37.933Z,7.43
2023-02-26T16:34:24.468Z,7.07
2023-02-26T16:36:54.063Z,9.47
2023-02-26T16:39:26.109Z,7.87
2023-02-26T16:42:09.570Z,10.23
2023-02-26T16:44:46.114Z,8.60
2023-02-26T16:47:13.397Z,9.97
2023-02-26T16:49:41.481Z,13.07
2023-02-26T16:52:13.025Z,8.57
2023-02-26T16:54:41.763Z,8.77
2023-02-26T16:57:18.750Z,11.90
2023-02-26T16:59:52.407Z,11.57
2023-02-26T17:02:24.721Z,9.90
2023-02-26T17:04:57.910Z,10.90
2023-02-26T17:07:28.211Z,9.50
2023-02-26T17:10:00.622Z,12.40
2023-02-26T17:12:42.540Z,14.20
2023-02-26T17:15:18.219Z,19.57
2023-02-26T17:17:44.992Z,13.13
2023-02-26T17:20:12.128Z,17.07
2023-02-26T17:22:39.006Z,15.50
2023-02-26T17:25:06.236Z,14.57
2023-02-26T17:27:34.937Z,16.23
2023-02-26T17:30:06.403Z,17.90
2023-02-26T17:32:33.427Z,14.33
2023-02-26T17:35:00.223Z,13.30
2023-02-26T17:37:33.448Z,16.70
2023-02-26T17:40:00.416Z,15.10
2023-02-26T17:42:27.012Z,15.57
2023-02-26T17:44:57.559Z,17.93
2023-02-26T17:47:26.528Z,17.80
2023-02-26T17:49:54.147Z,18.90
2023-02-26T17:52:21.030Z,24.53
2023-02-26T17:54:48.719Z,24.47
2023-02-26T17:57:20.032Z,20.57
2023-02-26T17:59:46.920Z,23.37
2023-02-26T18:02:18.740Z,21.13
2023-02-26T18:04:46.286Z,19.63
2023-02-26T18:07:16.551Z,28.20
2023-02-26T18:09:44.462Z,22.40
2023-02-26T18:12:14.121Z,17.20
2023-02-26T18:14:41.079Z,18.57
2023-02-26T18:17:12.477Z,25.60
2023-02-26T18:19:39.140Z,19.80
2023-02-26T18:22:05.748Z,19.57
2023-02-26T18:24:32.426Z,22.53
2023-02-26T18:26:59.103Z,18.77
2023-02-26T18:29:26.445Z,17.63
2023-02-26T18:31:53.234Z,17.97
2023-02-26T18:34:19.876Z,13.90
2023-02-26T18:36:48.306Z,18.17
2023-02-26T18:39:16.300Z,15.03
2023-02-26T18:41:42.819Z,15.13
2023-02-26T18:44:09.750Z,10.23
2023-02-26T18:46:40.351Z,15.13
2023-02-26T18:49:17.384Z,14.13
2023-02-26T18:51:44.237Z,15.17
2023-02-26T18:54:10.778Z,18.53
2023-02-26T18:56:38.001Z,9.93
2023-02-26T18:59:05.905Z,15.83
2023-02-26T19:01:32.738Z,14.70
2023-02-26T19:03:59.492Z,12.97
2023-02-26T19:06:27.879Z,10.80
2023-02-26T19:08:55.397Z,11.47
2023-02-26T19:11:22.262Z,14.30
2023-02-26T19:13:49.881Z,12.03
2023-02-26T19:16:16.514Z,12.77
2023-02-26T19:18:43.252Z,7.53
2023-02-26T19:21:10.884Z,12.63
2023-02-26T19:23:37.512Z,6.43
2023-02-26T19:26:05.412Z,10.20
2023-02-26T19:28:32.465Z,8.87
2023-02-26T19:30:59.094Z,7.33
2023-02-26T19:33:26.029Z,7.30
2023-02-26T19:35:53.278Z,9.40
2023-02-26T19:38:20.002Z,6.33
2023-02-26T19:40:46.733Z,8.90
2023-02-26T19:43:13.400Z,9.07
2023-02-26T19:45:40.003Z,7.20
2023-02-26T19:48:06.623Z,5.27
2023-02-26T19:50:33.161Z,10.10
2023-02-26T19:53:01.057Z,5.60
2023-02-26T19:55:27.790Z,4.33
2023-02-26T19:57:54.416Z,8.03
2023-02-26T20:00:21.023Z,6.53
2023-02-26T20:02:47.954Z,7.13
2023-02-26T20:05:17.177Z,6.40
2023-02-26T20:07:45.033Z,8.17
2023-02-26T20:10:12.488Z,6.67
2023-02-26T20:12:39.208Z,6.23
2023-02-26T20:15:06.340Z,4.37
2023-02-26T20:17:34.049Z,6.23
2023-02-26T20:20:00.891Z,4.40
2023-02-26T20:22:27.505Z,6.43
2023-02-26T20:24:54.148Z,9.63
2023-02-26T20:27:21.208Z,8.57
2023-02-26T20:29:47.769Z,4.97
2023-02-26T20:32:14.517Z,6.27
2023-02-26T20:34:41.213Z,6.03
2023-02-26T20:37:07.687Z,4.13
2023-02-26T20:39:34.472Z,6.97
2023-02-26T20:42:01.519Z,4.67
2023-02-26T20:44:28.039Z,6.40
2023-02-26T20:46:54.931Z,5.00
2023-02-26T20:49:21.830Z,5.87
2023-02-26T20:51:50.429Z,6.57
2023-02-26T20:54:19.783Z,4.50
2023-02-26T20:56:48.747Z,6.00
2023-02-26T20:59:17.908Z,6.23
2023-02-26T21:01:45.486Z,9.93
2023-02-26T21:04:12.584Z,6.93
2023-02-26T21:06:39.299Z,11.07
2023-02-26T21:09:06.693Z,7.60
2023-02-26T21:11:36.616Z,6.43
2023-02-26T21:14:05.574Z,6.80
2023-02-26T21:16:32.463Z,9.63
2023-02-26T21:19:03.941Z,10.17
2023-02-26T21:21:31.071Z,8.63
2023-02-26T21:23:58.010Z,12.80
2023-02-26T21:26:24.599Z,6.50
2023-02-26T21:28:51.132Z,7.73
2023-02-26T21:31:20.014Z,8.80
2023-02-26T21:33:46.641Z,9.20
2023-02-26T21:36:14.100Z,8.00
2023-02-26T21:38:41.006Z,8.17
2023-02-26T21:41:07.861Z,8.40
2023-02-26T21:43:34.716Z,8.90
2023-02-26T21:46:01.586Z,11.80
2023-02-26T21:48:28.119Z,9.40
2023-02-26T21:50:56.620Z,9.37
2023-02-26T21:53:23.569Z,12.33
2023-02-26T21:55:50.213Z,8.73
2023-02-26T21:58:16.746Z,10.77
2023-02-26T22:00:43.717Z,10.20
2023-02-26T22:03:11.323Z,12.47
2023-02-26T22:05:37.847Z,9.07
2023-02-26T22:08:04.671Z,8.30
2023-02-26T22:10:31.337Z,9.60
2023-02-26T22:12:57.819Z,11.77
2023-02-26T22:15:24.270Z,7.70
2023-02-26T22:17:50.700Z,9.47
2023-02-26T22:20:17.204Z,10.70
2023-02-26T22:22:44.304Z,12.63
2023-02-26T22:25:12.443Z,12.07
2023-02-26T22:27:39.329Z,11.03
2023-02-26T22:30:08.046Z,11.47
2023-02-26T22:32:35.152Z,12.60
2023-02-26T22:35:01.779Z,14.17
2023-02-26T22:37:28.416Z,12.70
2023-02-26T22:39:55.002Z,16.27
2023-02-26T22:42:21.810Z,9.57
2023-02-26T22:44:48.713Z,11.43
2023-02-26T22:47:15.310Z,12.27
2023-02-26T22:49:42.053Z,14.70
2023-02-26T22:52:10.601Z,9.53
2023-02-26T22:54:38.840Z,14.20
2023-02-26T22:57:06.305Z,8.43
2023-02-26T22:59:33.340Z,11.67
2023-02-26T23:01:59.810Z,13.67
2023-02-26T23:04:26.549Z,13.77
2023-02-26T23:06:53.132Z,15.87
2023-02-26T23:09:20.154Z,9.83
2023-02-26T23:11:46.839Z,9.63
2023-02-26T23:14:13.574Z,10.27
2023-02-26T23:16:40.413Z,8.57
2023-02-26T23:19:07.051Z,8.43
2023-02-26T23:21:33.528Z,11.23
2023-02-26T23:24:00.105Z,8.30
2023-02-26T23:26:26.956Z,8.80
2023-02-26T23:28:53.683Z,10.77
2023-02-26T23:31:20.279Z,11.97
2023-02-26T23:33:47.085Z,10.00
2023-02-26T23:36:13.789Z,12.20
2023-02-26T23:38:40.463Z,14.37
2023-02-26T23:41:07.193Z,9.83
2023-02-26T23:43:33.907Z,10.37
2023-02-26T23:46:00.468Z,12.73
2023-02-26T23:48:27.486Z,17.67
2023-02-26T23:50:54.434Z,13.43
2023-02-26T23:53:21.117Z,15.97
2023-02-26T23:55:47.936Z,14.13
2023-02-26T23:58:14.706Z,11.27
